Dades meteomassalio
Diari Summary for Juny 24, 2017 Units:  Metric    English   Both
« Previous Day
Next Day »
Diari Semanal Mensual Anual Personalitzat
  Maxima: Minima: Mijana:
Temperatura: 36.1 °C 20.6 °C 27.7 °C
Rosada: 19.7 °C 11.7 °C 16.2 °C
Humitat: 71 % 23 % 52 %
Velocitat del vent: 29.6 km/h 0.0 km/h 5.6 km/h
Racha vent: 29.6 km/h - -
Vent:- - South
Pressio: 1018.8 hPa 1012.4 hPa -
Pluja: 0.0 mm    
Historical Graphs
 
 
Tabular Data for Juny 24, 2017
Time Temperature Dew Point Pressure Wind Wind Speed Wind Gust Humidity Rainfall Rate (Hourly) solar Conditions
00:04 28.1 °C 18.7 °C 1016.1 hPa Calm     57 % 0.0 mm 0.0 W/m2 CLR
00:09 27.9 °C 18.6 °C 1016.1 hPa Calm     57 % 0.0 mm 0.0 W/m2 CLR
00:14 27.8 °C 18.5 °C 1016.1 hPa Calm     57 % 0.0 mm 0.0 W/m2 CLR
00:19 27.7 °C 17.5 °C 1016.1 hPa Calm     54 % 0.0 mm 0.0 W/m2 CLR
00:24 27.9 °C 17.1 °C 1016.1 hPa Calm     52 % 0.0 mm 0.0 W/m2 CLR
00:29 28.1 °C 17.6 °C 1016.1 hPa Calm     53 % 0.0 mm 0.0 W/m2 CLR
00:34 28.0 °C 17.5 °C 1016.1 hPa Calm     53 % 0.0 mm 0.0 W/m2 CLR
00:39 27.8 °C 17.4 °C 1016.1 hPa Calm     53 % 0.0 mm 0.0 W/m2 CLR
00:44 27.7 °C 17.3 °C 1016.1 hPa Calm     53 % 0.0 mm 0.0 W/m2 CLR
00:49 27.7 °C 16.9 °C 1016.5 hPa Calm     52 % 0.0 mm 0.0 W/m2 CLR
00:54 27.7 °C 16.9 °C 1016.5 hPa Calm     52 % 0.0 mm 0.0 W/m2 CLR
00:59 27.4 °C 17.3 °C 1016.8 hPa NW 18.5 km/h 18.5 km/h 54 % 0.0 mm 0.0 W/m2 CLR
01:05 27.2 °C 17.1 °C 1016.8 hPa NNW 5.6 km/h 5.6 km/h 54 % 0.0 mm 0.0 W/m2 CLR
01:10 27.2 °C 17.6 °C 1016.5 hPa Calm     56 % 0.0 mm 0.0 W/m2 CLR
01:15 26.9 °C 18.0 °C 1016.5 hPa Calm     58 % 0.0 mm 0.0 W/m2 CLR
01:20 26.7 °C 18.1 °C 1016.5 hPa East 3.7 km/h   59 % 0.0 mm 0.0 W/m2 CLR
01:25 26.4 °C 17.8 °C 1016.5 hPa Calm     59 % 0.0 mm 0.0 W/m2 CLR
01:30 26.2 °C 18.1 °C 1016.5 hPa Calm     61 % 0.0 mm 0.0 W/m2 CLR
01:35 26.1 °C 18.4 °C 1016.5 hPa Calm     63 % 0.0 mm 0.0 W/m2 CLR
01:40 25.8 °C 18.3 °C 1016.8 hPa Calm     63 % 0.0 mm 0.0 W/m2 CLR
01:45 25.7 °C 18.1 °C 1016.8 hPa Calm     63 % 0.0 mm 0.0 W/m2 CLR
01:50 25.6 °C 18.2 °C 1016.8 hPa Calm     64 % 0.0 mm 0.0 W/m2 CLR
01:55 25.8 °C 18.8 °C 1016.8 hPa NW 16.7 km/h 16.7 km/h 65 % 0.0 mm 0.0 W/m2 CLR
02:00 26.2 °C 19.1 °C 1016.8 hPa NW 24.1 km/h 24.1 km/h 65 % 0.0 mm 0.0 W/m2 CLR
02:05 26.2 °C 19.3 °C 1017.2 hPa NW 27.8 km/h 27.8 km/h 66 % 0.0 mm 0.0 W/m2 CLR
02:10 25.8 °C 18.8 °C 1016.8 hPa NNW 29.6 km/h 29.6 km/h 65 % 0.0 mm 0.0 W/m2 CLR
02:15 25.7 °C 18.8 °C 1017.2 hPa WNW 20.4 km/h 20.4 km/h 66 % 0.0 mm 0.0 W/m2 CLR
02:20 25.5 °C 18.4 °C 1017.2 hPa WSW 13.0 km/h 13.0 km/h 65 % 0.0 mm 0.0 W/m2 CLR
02:25 25.4 °C 18.3 °C 1017.5 hPa Calm   2.4 km/h 65 % 0.0 mm 0.0 W/m2 CLR
02:30 25.2 °C 16.4 °C 1017.5 hPa Calm     58 % 0.0 mm 0.0 W/m2 CLR
02:35 25.1 °C 16.0 °C 1017.5 hPa Calm     57 % 0.0 mm 0.0 W/m2 CLR
02:40 24.9 °C 15.8 °C 1017.5 hPa West 9.3 km/h 9.3 km/h 57 % 0.0 mm 0.0 W/m2 CLR
02:45 24.7 °C 15.6 °C 1017.5 hPa NW 7.4 km/h 7.4 km/h 57 % 0.0 mm 0.0 W/m2 CLR
02:50 24.4 °C 15.7 °C 1017.5 hPa WNW 5.6 km/h 5.6 km/h 58 % 0.0 mm 0.0 W/m2 CLR
02:55 24.3 °C 15.6 °C 1017.5 hPa WNW 7.4 km/h 7.4 km/h 58 % 0.0 mm 0.0 W/m2 CLR
03:00 24.2 °C 15.7 °C 1017.5 hPa Calm     59 % 0.0 mm 0.0 W/m2 CLR
03:05 24.1 °C 15.6 °C 1017.5 hPa Calm     59 % 0.0 mm 0.0 W/m2 CLR
03:10 24.0 °C 15.5 °C 1017.5 hPa Calm     59 % 0.0 mm 0.0 W/m2 CLR
03:15 23.9 °C 15.7 °C 1017.5 hPa Calm     60 % 0.0 mm 0.0 W/m2 CLR
03:20 23.9 °C 15.7 °C 1017.5 hPa Calm     60 % 0.0 mm 0.0 W/m2 CLR
03:25 23.8 °C 15.6 °C 1017.5 hPa Calm     60 % 0.0 mm 0.0 W/m2 CLR
03:30 23.7 °C 15.5 °C 1017.5 hPa Calm     60 % 0.0 mm 0.0 W/m2 CLR
03:35 23.6 °C 15.7 °C 1017.5 hPa Calm     61 % 0.0 mm 0.0 W/m2 CLR
03:40 23.5 °C 15.6 °C 1017.5 hPa Calm     61 % 0.0 mm 0.0 W/m2 CLR
03:45 23.4 °C 15.5 °C 1017.8 hPa Calm     61 % 0.0 mm 0.0 W/m2 CLR
03:50 23.4 °C 15.4 °C 1017.8 hPa Calm     61 % 0.0 mm 0.0 W/m2 CLR
03:55 23.3 °C 15.7 °C 1017.8 hPa Calm     62 % 0.0 mm 0.0 W/m2 CLR
04:00 23.2 °C 15.6 °C 1017.8 hPa Calm     62 % 0.0 mm 0.0 W/m2 CLR
04:05 23.1 °C 15.4 °C 1017.8 hPa Calm     62 % 0.0 mm 0.0 W/m2 CLR
04:10 22.9 °C 15.5 °C 1017.8 hPa Calm     63 % 0.0 mm 0.0 W/m2 CLR
04:15 22.8 °C 15.4 °C 1017.8 hPa Calm     63 % 0.0 mm 0.0 W/m2 CLR
04:17 22.8 °C 15.4 °C 1017.8 hPa Calm     63 % 0.0 mm 0.0 W/m2 CLR
04:22 22.7 °C 15.3 °C 1017.8 hPa NW 1.6 km/h   63 % 0.0 mm 0.0 W/m2 CLR
04:27 22.6 °C 15.2 °C 1017.8 hPa WNW 5.6 km/h 5.6 km/h 63 % 0.0 mm 0.0 W/m2 CLR
04:32 22.6 °C 15.2 °C 1017.8 hPa WNW 5.6 km/h 5.6 km/h 63 % 0.0 mm 0.0 W/m2 CLR
04:37 22.6 °C 15.4 °C 1017.8 hPa WNW 12.9 km/h 12.9 km/h 64 % 0.0 mm 0.0 W/m2 CLR
04:42 22.5 °C 15.3 °C 1018.2 hPa NW 13.0 km/h 13.0 km/h 64 % 0.0 mm 0.0 W/m2 CLR
04:47 22.4 °C 15.2 °C 1018.2 hPa Calm     64 % 0.0 mm 0.0 W/m2 CLR
04:52 22.3 °C 15.2 °C 1018.2 hPa WNW 5.6 km/h   64 % 0.0 mm 0.0 W/m2 CLR
04:57 22.2 °C 15.3 °C 1018.2 hPa NW 11.1 km/h 11.1 km/h 65 % 0.0 mm 0.0 W/m2 CLR
05:02 22.2 °C 15.3 °C 1018.2 hPa Calm     65 % 0.0 mm 0.0 W/m2 CLR
05:07 22.1 °C 15.2 °C 1018.2 hPa Calm     65 % 0.0 mm 0.0 W/m2 CLR
05:12 22.0 °C 15.1 °C 1018.2 hPa WNW 7.4 km/h 7.4 km/h 65 % 0.0 mm 0.0 W/m2 CLR
05:17 21.9 °C 15.3 °C 1018.2 hPa NW 9.3 km/h 9.3 km/h 66 % 0.0 mm 0.0 W/m2 CLR
05:22 21.9 °C 15.2 °C 1018.2 hPa Calm     66 % 0.0 mm 0.0 W/m2 CLR
05:27 21.9 °C 15.2 °C 1018.5 hPa Calm     66 % 0.0 mm 0.0 W/m2 CLR
05:32 21.8 °C 15.4 °C 1018.5 hPa Calm     67 % 0.0 mm 0.0 W/m2 CLR
05:37 21.8 °C 15.4 °C 1018.5 hPa WNW 11.1 km/h 11.1 km/h 67 % 0.0 mm 0.0 W/m2 CLR
05:42 21.7 °C 15.3 °C 1018.5 hPa West 5.6 km/h   67 % 0.0 mm 0.0 W/m2 CLR
05:47 21.7 °C 15.3 °C 1018.5 hPa WSW 5.6 km/h 5.6 km/h 67 % 0.0 mm 0.0 W/m2 CLR
05:52 21.5 °C 15.3 °C 1018.5 hPa WSW 5.6 km/h 5.6 km/h 68 % 0.0 mm 0.0 W/m2 CLR
05:57 21.4 °C 15.2 °C 1018.5 hPa West 7.4 km/h 7.4 km/h 68 % 0.0 mm 0.0 W/m2 CLR
06:02 21.3 °C 15.3 °C 1018.2 hPa WSW 9.3 km/h 9.3 km/h 69 % 0.0 mm 0.0 W/m2 CLR
06:07 21.2 °C 15.3 °C 1018.2 hPa WSW 6.4 km/h 6.4 km/h 69 % 0.0 mm 0.0 W/m2 CLR
06:12 21.1 °C 15.2 °C 1018.5 hPa WSW 1.9 km/h   69 % 0.0 mm 0.0 W/m2 CLR
06:17 21.1 °C 15.2 °C 1018.5 hPa Calm     69 % 0.0 mm 0.0 W/m2 CLR
06:22 20.9 °C 15.1 °C 1018.5 hPa Calm     69 % 0.0 mm 0.0 W/m2 OVC
06:27 20.9 °C 15.2 °C 1018.5 hPa Calm     70 % 0.0 mm 0.0 W/m2 OVC
06:32 20.8 °C 15.2 °C 1018.2 hPa Calm     70 % 0.0 mm 5.0 W/m2 OVC
06:37 20.8 °C 15.1 °C 1018.5 hPa WSW 5.6 km/h 5.6 km/h 70 % 0.0 mm 7.0 W/m2 BKN
06:42 20.7 °C 15.1 °C 1018.2 hPa West 5.6 km/h 5.6 km/h 70 % 0.0 mm 11.0 W/m2 BKN
06:47 20.7 °C 15.0 °C 1018.5 hPa Calm     70 % 0.0 mm 14.0 W/m2 BKN
06:52 20.6 °C 14.9 °C 1018.5 hPa West 9.3 km/h 9.3 km/h 70 % 0.0 mm 18.0 W/m2 BKN
06:57 20.6 °C 15.2 °C 1018.5 hPa Calm     71 % 0.0 mm 21.0 W/m2 BKN
07:02 20.6 °C 15.2 °C 1018.5 hPa Calm     71 % 0.0 mm 25.0 W/m2 BKN
07:03 20.6 °C 15.2 °C 1018.2 hPa Calm     71 % 0.0 mm 25.0 W/m2 BKN
07:08 20.6 °C 15.2 °C 1018.5 hPa SSW 1.9 km/h 1.9 km/h 71 % 0.0 mm 33.0 W/m2 BKN
07:13 20.6 °C 15.2 °C 1018.5 hPa Calm     71 % 0.0 mm 40.0 W/m2 BKN
07:18 20.6 °C 15.1 °C 1018.5 hPa WSW 5.6 km/h 5.6 km/h 71 % 0.0 mm 49.0 W/m2 SCT
07:23 20.6 °C 15.1 °C 1018.5 hPa WSW 5.6 km/h 5.6 km/h 71 % 0.0 mm 58.0 W/m2 SCT
07:28 20.6 °C 15.2 °C 1018.5 hPa Calm     71 % 0.0 mm 70.0 W/m2 FEW
07:33 20.7 °C 15.3 °C 1018.5 hPa Calm     71 % 0.0 mm 81.0 W/m2 FEW
07:38 20.8 °C 15.4 °C 1018.5 hPa Calm     71 % 0.0 mm 95.0 W/m2 FEW
07:43 20.9 °C 15.2 °C 1018.5 hPa Calm     70 % 0.0 mm 109.0 W/m2 CLR
07:48 21.0 °C 15.3 °C 1018.5 hPa Calm     70 % 0.0 mm 127.0 W/m2 CLR
07:53 21.1 °C 15.2 °C 1018.5 hPa Calm     69 % 0.0 mm 141.0 W/m2 CLR
07:58 21.2 °C 15.3 °C 1018.5 hPa Calm   0.6 km/h 69 % 0.0 mm 155.0 W/m2 CLR
08:03 21.3 °C 15.4 °C 1018.5 hPa WSW 1.9 km/h   69 % 0.0 mm 171.0 W/m2 CLR
08:08 21.6 °C 15.4 °C 1018.5 hPa NNW 9.3 km/h 9.3 km/h 68 % 0.0 mm 190.0 W/m2 CLR
08:13 21.6 °C 15.2 °C 1018.5 hPa WNW 11.1 km/h 11.1 km/h 67 % 0.0 mm 204.0 W/m2 CLR
08:18 21.7 °C 15.3 °C 1018.5 hPa North 13.0 km/h 13.0 km/h 67 % 0.0 mm 220.0 W/m2 CLR
08:23 21.7 °C 15.3 °C 1018.5 hPa NW 13.0 km/h 13.0 km/h 67 % 0.0 mm 234.0 W/m2 CLR
08:28 21.8 °C 15.2 °C 1018.5 hPa NNW 13.0 km/h 13.0 km/h 66 % 0.0 mm 251.0 W/m2 CLR
08:33 21.9 °C 15.2 °C 1018.5 hPa NW 9.3 km/h 9.3 km/h 66 % 0.0 mm 264.0 W/m2 CLR
08:38 22.1 °C 15.4 °C 1018.5 hPa NW 11.1 km/h 11.1 km/h 66 % 0.0 mm 281.0 W/m2 CLR
08:43 22.1 °C 15.2 °C 1018.5 hPa NNW 13.0 km/h 13.0 km/h 65 % 0.0 mm 294.0 W/m2 CLR
08:48 22.2 °C 15.3 °C 1018.8 hPa NW 11.3 km/h 11.3 km/h 65 % 0.0 mm 308.0 W/m2 CLR
08:54 22.2 °C 15.3 °C 1018.5 hPa WNW 13.0 km/h 13.0 km/h 65 % 0.0 mm 325.0 W/m2 CLR
08:59 22.3 °C 15.4 °C 1018.5 hPa WNW 13.0 km/h 13.0 km/h 65 % 0.0 mm 339.0 W/m2 CLR
09:04 22.3 °C 15.4 °C 1018.5 hPa NW 11.1 km/h 11.1 km/h 65 % 0.0 mm 353.0 W/m2 CLR
09:09 22.4 °C 15.2 °C 1018.5 hPa NW 11.1 km/h 11.1 km/h 64 % 0.0 mm 369.0 W/m2 CLR
09:14 22.6 °C 15.4 °C 1018.5 hPa WNW 7.4 km/h 7.4 km/h 64 % 0.0 mm 387.0 W/m2 CLR
09:19 22.7 °C 15.6 °C 1018.5 hPa Calm     64 % 0.0 mm 403.0 W/m2 CLR
09:24 22.9 °C 15.3 °C 1018.5 hPa West 8.0 km/h 8.0 km/h 62 % 0.0 mm 415.0 W/m2 CLR
09:29 22.9 °C 15.5 °C 1018.2 hPa Calm     63 % 0.0 mm 429.0 W/m2 CLR
09:34 23.3 °C 15.4 °C 1018.2 hPa WNW 9.3 km/h 9.3 km/h 61 % 0.0 mm 446.0 W/m2 CLR
09:39 23.6 °C 15.6 °C 1018.2 hPa NW 9.3 km/h 9.3 km/h 61 % 0.0 mm 462.0 W/m2 CLR
09:44 23.6 °C 15.7 °C 1018.2 hPa NW 9.7 km/h 9.7 km/h 61 % 0.0 mm 476.0 W/m2 CLR
09:49 23.7 °C 15.5 °C 1018.2 hPa WNW 7.4 km/h 7.4 km/h 60 % 0.0 mm 489.0 W/m2 CLR
09:54 23.9 °C 15.7 °C 1018.2 hPa NW 8.0 km/h 8.0 km/h 60 % 0.0 mm 503.0 W/m2 CLR
09:59 24.1 °C 15.8 °C 1018.2 hPa West 3.2 km/h 3.2 km/h 60 % 0.0 mm 519.0 W/m2 CLR
10:04 24.2 °C 15.7 °C 1018.2 hPa Calm     59 % 0.0 mm 533.0 W/m2 CLR
10:09 24.5 °C 15.9 °C 1018.2 hPa Calm     59 % 0.0 mm 547.0 W/m2 CLR
10:14 24.8 °C 16.0 °C 1017.8 hPa NW 9.7 km/h 9.7 km/h 58 % 0.0 mm 561.0 W/m2 CLR
10:15 24.8 °C 15.7 °C 1017.8 hPa NNW 9.3 km/h 9.3 km/h 57 % 0.0 mm 561.0 W/m2 CLR
10:20 24.8 °C 15.7 °C 1017.8 hPa NW 9.3 km/h 9.3 km/h 57 % 0.0 mm 575.0 W/m2 CLR
10:25 24.8 °C 15.7 °C 1017.8 hPa Calm     57 % 0.0 mm 587.0 W/m2 CLR
10:30 24.9 °C 15.8 °C 1017.8 hPa Calm     57 % 0.0 mm 599.0 W/m2 CLR
10:35 25.3 °C 15.9 °C 1017.8 hPa North 7.4 km/h 7.4 km/h 56 % 0.0 mm 615.0 W/m2 CLR
10:40 25.6 °C 15.9 °C 1017.8 hPa NE 14.8 km/h 14.8 km/h 55 % 0.0 mm 628.0 W/m2 CLR
10:45 25.6 °C 15.9 °C 1017.8 hPa NNW 9.3 km/h 9.3 km/h 55 % 0.0 mm 638.0 W/m2 CLR
10:50 25.7 °C 16.2 °C 1017.8 hPa Calm     56 % 0.0 mm 647.0 W/m2 CLR
10:55 26.0 °C 15.9 °C 1017.8 hPa NW 3.7 km/h 3.7 km/h 54 % 0.0 mm 663.0 W/m2 CLR
11:00 26.2 °C 16.1 °C 1017.8 hPa North 11.3 km/h 11.3 km/h 54 % 0.0 mm 675.0 W/m2 CLR
11:05 26.2 °C 16.2 °C 1017.8 hPa North 8.0 km/h 8.0 km/h 54 % 0.0 mm 687.0 W/m2 CLR
11:10 26.2 °C 16.2 °C 1017.8 hPa NE 1.6 km/h   54 % 0.0 mm 700.0 W/m2 CLR
11:15 26.5 °C 16.2 °C 1017.8 hPa NNE 5.6 km/h 5.6 km/h 53 % 0.0 mm 712.0 W/m2 CLR
11:20 26.6 °C 16.2 °C 1017.8 hPa North 5.6 km/h 5.6 km/h 53 % 0.0 mm 729.0 W/m2 CLR
11:25 26.8 °C 16.2 °C 1018.2 hPa ENE 9.3 km/h 9.3 km/h 52 % 0.0 mm 749.0 W/m2 CLR
11:30 26.8 °C 15.8 °C 1017.8 hPa Calm     51 % 0.0 mm 754.0 W/m2 CLR
11:35 26.9 °C 15.9 °C 1017.8 hPa North 13.0 km/h 13.0 km/h 51 % 0.0 mm 763.0 W/m2 CLR
11:40 26.9 °C 15.9 °C 1017.8 hPa ENE 9.7 km/h 9.7 km/h 51 % 0.0 mm 773.0 W/m2 CLR
11:45 27.0 °C 16.3 °C 1017.8 hPa Calm     52 % 0.0 mm 784.0 W/m2 CLR
11:50 27.4 °C 16.1 °C 1017.8 hPa North 9.7 km/h 9.7 km/h 50 % 0.0 mm 789.0 W/m2 CLR
11:55 27.4 °C 16.1 °C 1017.8 hPa ENE 5.6 km/h 5.6 km/h 50 % 0.0 mm 800.0 W/m2 CLR
12:00 27.6 °C 16.2 °C 1017.8 hPa North 9.3 km/h 9.3 km/h 50 % 0.0 mm 810.0 W/m2 CLR
12:05 27.9 °C 16.2 °C 1017.8 hPa East 5.6 km/h 5.6 km/h 49 % 0.0 mm 826.0 W/m2 CLR
12:10 28.0 °C 15.9 °C 1017.8 hPa ENE 5.6 km/h 5.6 km/h 48 % 0.0 mm 831.0 W/m2 CLR
12:15 27.9 °C 15.9 °C 1017.8 hPa Calm     48 % 0.0 mm 838.0 W/m2 CLR
12:20 28.1 °C 16.4 °C 1017.5 hPa Calm     49 % 0.0 mm 849.0 W/m2 CLR
12:25 28.4 °C 16.4 °C 1017.5 hPa NE 7.4 km/h   48 % 0.0 mm 860.0 W/m2 CLR
12:30 28.5 °C 16.4 °C 1017.5 hPa NNE 6.4 km/h 6.4 km/h 48 % 0.0 mm 860.0 W/m2 CLR
12:35 28.7 °C 16.3 °C 1017.2 hPa Calm     47 % 0.0 mm 868.0 W/m2 CLR
12:40 28.9 °C 16.2 °C 1017.2 hPa SSE 3.7 km/h 3.7 km/h 46 % 0.0 mm 870.0 W/m2 CLR
12:45 28.9 °C 16.2 °C 1017.2 hPa East 3.7 km/h 3.7 km/h 46 % 0.0 mm 877.0 W/m2 CLR
12:50 28.9 °C 16.2 °C 1017.2 hPa ENE 1.9 km/h   46 % 0.0 mm 884.0 W/m2 CLR
12:55 29.2 °C 16.1 °C 1016.8 hPa ENE 7.4 km/h 7.4 km/h 45 % 0.0 mm 882.0 W/m2 CLR
13:00 29.3 °C 16.2 °C 1016.8 hPa SE 7.4 km/h 7.4 km/h 45 % 0.0 mm 886.0 W/m2 CLR
13:05 29.7 °C 16.2 °C 1016.8 hPa NNE 11.1 km/h 11.1 km/h 44 % 0.0 mm 896.0 W/m2 CLR
13:07 29.8 °C 16.3 °C 1016.8 hPa Calm     44 % 0.0 mm 898.0 W/m2 CLR
13:12 30.1 °C 16.1 °C 1016.8 hPa NNE 1.9 km/h 1.9 km/h 43 % 0.0 mm 898.0 W/m2 CLR
13:17 30.3 °C 16.0 °C 1016.8 hPa NW 7.4 km/h 7.4 km/h 42 % 0.0 mm 907.0 W/m2 CLR
13:22 30.4 °C 16.1 °C 1016.8 hPa Calm     42 % 0.0 mm 905.0 W/m2 CLR
13:27 30.8 °C 16.1 °C 1016.5 hPa ENE 5.6 km/h 5.6 km/h 41 % 0.0 mm 912.0 W/m2 CLR
13:32 30.9 °C 16.1 °C 1016.5 hPa ENE 3.7 km/h 3.7 km/h 41 % 0.0 mm 919.0 W/m2 CLR
13:37 30.9 °C 15.8 °C 1016.1 hPa NE 7.4 km/h 7.4 km/h 40 % 0.0 mm 914.0 W/m2 CLR
13:42 31.3 °C 16.1 °C 1016.1 hPa ENE 9.3 km/h 9.3 km/h 40 % 0.0 mm 919.0 W/m2 CLR
13:47 31.7 °C 16.4 °C 1016.1 hPa Calm     40 % 0.0 mm 923.0 W/m2 CLR
13:52 31.8 °C 16.2 °C 1015.8 hPa NNE 7.4 km/h 7.4 km/h 39 % 0.0 mm 923.0 W/m2 CLR
13:57 32.1 °C 16.4 °C 1015.8 hPa ENE 8.0 km/h 8.0 km/h 39 % 0.0 mm 919.0 W/m2 CLR
14:02 32.2 °C 16.1 °C 1015.8 hPa NE 5.6 km/h 5.6 km/h 38 % 0.0 mm 851.0 W/m2 CLR
14:07 32.2 °C 15.7 °C 1015.8 hPa Calm     37 % 0.0 mm 559.0 W/m2 CLR
14:12 32.2 °C 16.1 °C 1015.8 hPa ENE 11.1 km/h 11.1 km/h 38 % 0.0 mm 997.0 W/m2 CLR
14:17 32.3 °C 15.8 °C 1015.5 hPa NE 11.1 km/h 11.1 km/h 37 % 0.0 mm 744.0 W/m2 CLR
14:22 32.1 °C 15.1 °C 1015.8 hPa NNE 14.8 km/h 14.8 km/h 36 % 0.0 mm 376.0 W/m2 CLR
14:27 31.9 °C 14.9 °C 1015.8 hPa Calm     36 % 0.0 mm 983.0 W/m2 CLR
14:32 32.2 °C 15.3 °C 1015.8 hPa North 13.0 km/h 13.0 km/h 36 % 0.0 mm 933.0 W/m2 CLR
14:37 32.3 °C 15.3 °C 1015.5 hPa ENE 8.0 km/h 8.0 km/h 36 % 0.0 mm 868.0 W/m2 CLR
14:42 32.7 °C 15.2 °C 1015.5 hPa NE 7.4 km/h   35 % 0.0 mm 828.0 W/m2 CLR
14:47 32.8 °C 15.3 °C 1015.5 hPa ENE 13.0 km/h 13.0 km/h 35 % 0.0 mm 445.0 W/m2 CLR
14:52 32.9 °C 14.9 °C 1015.5 hPa North 11.1 km/h 11.1 km/h 34 % 0.0 mm 675.0 W/m2 CLR
14:57 32.7 °C 14.8 °C 1015.5 hPa North 13.0 km/h 13.0 km/h 34 % 0.0 mm 677.0 W/m2 CLR
15:02 32.6 °C 14.7 °C 1015.1 hPa ENE 6.4 km/h 6.4 km/h 34 % 0.0 mm 594.0 W/m2 CLR
15:07 32.8 °C 14.4 °C 1015.1 hPa North 11.1 km/h 11.1 km/h 33 % 0.0 mm 928.0 W/m2 CLR
15:12 33.1 °C 14.7 °C 1015.1 hPa NE 5.6 km/h 5.6 km/h 33 % 0.0 mm 863.0 W/m2 CLR
15:17 33.3 °C 14.4 °C 1015.1 hPa NNE 1.6 km/h 1.6 km/h 32 % 0.0 mm 833.0 W/m2 CLR
15:22 33.6 °C 14.2 °C 1015.1 hPa Calm     31 % 0.0 mm 867.0 W/m2 CLR
15:23 33.6 °C 14.2 °C 1015.1 hPa Calm     31 % 0.0 mm 895.0 W/m2 CLR
15:28 34.1 °C 14.6 °C 1015.1 hPa NNE 7.4 km/h 7.4 km/h 31 % 0.0 mm 879.0 W/m2 CLR
15:33 34.3 °C 14.2 °C 1014.8 hPa NE 13.0 km/h 13.0 km/h 30 % 0.0 mm 872.0 W/m2 CLR
15:38 34.3 °C 13.7 °C 1014.8 hPa NE 16.7 km/h 16.7 km/h 29 % 0.0 mm 854.0 W/m2 CLR
15:43 34.3 °C 13.7 °C 1014.8 hPa NE 9.3 km/h 9.3 km/h 29 % 0.0 mm 895.0 W/m2 CLR
15:48 34.4 °C 12.7 °C 1014.8 hPa ENE 9.3 km/h 9.3 km/h 27 % 0.0 mm 671.0 W/m2 CLR
15:53 34.4 °C 13.3 °C 1014.4 hPa NNE 13.0 km/h 13.0 km/h 28 % 0.0 mm 780.0 W/m2 CLR
15:58 34.3 °C 12.7 °C 1014.4 hPa North 9.3 km/h 9.3 km/h 27 % 0.0 mm 844.0 W/m2 CLR
16:03 34.4 °C 13.3 °C 1014.4 hPa NE 9.7 km/h 9.7 km/h 28 % 0.0 mm 580.0 W/m2 CLR
16:08 34.7 °C 13.5 °C 1014.4 hPa NNE 9.7 km/h 9.7 km/h 28 % 0.0 mm 482.0 W/m2 CLR
16:13 34.7 °C 13.6 °C 1014.1 hPa NNW 9.3 km/h 9.3 km/h 28 % 0.0 mm 374.0 W/m2 CLR
16:18 34.6 °C 13.4 °C 1014.4 hPa NE 11.1 km/h 11.1 km/h 28 % 0.0 mm 503.0 W/m2 CLR
16:23 34.7 °C 12.9 °C 1014.1 hPa NNW 13.0 km/h 13.0 km/h 27 % 0.0 mm 796.0 W/m2 CLR
16:28 34.8 °C 13.1 °C 1014.1 hPa Calm     27 % 0.0 mm 589.0 W/m2 CLR
16:33 34.9 °C 11.9 °C 1014.1 hPa North 9.3 km/h 9.3 km/h 25 % 0.0 mm 281.0 W/m2 CLR
16:38 34.8 °C 11.8 °C 1014.1 hPa NE 9.7 km/h 13.0 km/h 25 % 0.0 mm 480.0 W/m2 CLR
16:43 34.8 °C 12.5 °C 1014.1 hPa NNW 8.0 km/h 8.0 km/h 26 % 0.0 mm 854.0 W/m2 CLR
16:48 35.2 °C 12.2 °C 1013.8 hPa NNW 9.3 km/h 9.3 km/h 25 % 0.0 mm 805.0 W/m2 CLR
16:53 35.8 °C 12.7 °C 1013.8 hPa NE 3.2 km/h 3.2 km/h 25 % 0.0 mm 707.0 W/m2 CLR
16:58 36.1 °C 12.3 °C 1013.8 hPa North 7.4 km/h 7.4 km/h 24 % 0.0 mm 782.0 W/m2 CLR
17:03 36.1 °C 11.7 °C 1013.8 hPa NNW 7.4 km/h 7.4 km/h 23 % 0.0 mm 731.0 W/m2 CLR
17:08 36.1 °C 12.9 °C 1013.8 hPa ENE 9.7 km/h 9.7 km/h 25 % 0.0 mm 705.0 W/m2 CLR
17:13 35.7 °C 12.0 °C 1013.8 hPa NE 4.8 km/h 5.3 km/h 24 % 0.0 mm 749.0 W/m2 CLR
17:18 35.8 °C 12.1 °C 1013.8 hPa NE 11.1 km/h 11.1 km/h 24 % 0.0 mm 773.0 W/m2 CLR
17:23 35.9 °C 12.8 °C 1013.4 hPa NNE 5.6 km/h 5.6 km/h 25 % 0.0 mm 694.0 W/m2 CLR
17:28 35.9 °C 12.2 °C 1013.4 hPa NNW 7.4 km/h 7.4 km/h 24 % 0.0 mm 659.0 W/m2 CLR
17:33 35.9 °C 12.8 °C 1013.4 hPa WNW 3.2 km/h 3.2 km/h 25 % 0.0 mm 322.0 W/m2 CLR
17:38 36.0 °C 13.5 °C 1013.4 hPa Calm     26 % 0.0 mm 647.0 W/m2 CLR
17:43 35.6 °C 15.9 °C 1013.4 hPa East 18.5 km/h 18.5 km/h 31 % 0.0 mm 626.0 W/m2 CLR
17:44 35.4 °C 16.2 °C 1013.1 hPa East 11.1 km/h 11.1 km/h 32 % 0.0 mm 591.0 W/m2 CLR
17:49 34.9 °C 15.8 °C 1013.4 hPa Calm     32 % 0.0 mm 575.0 W/m2 CLR
17:54 35.2 °C 16.0 °C 1013.1 hPa Calm     32 % 0.0 mm 555.0 W/m2 CLR
17:59 35.4 °C 15.7 °C 1013.1 hPa ENE 3.7 km/h 3.7 km/h 31 % 0.0 mm 543.0 W/m2 CLR
18:04 35.3 °C 16.1 °C 1013.1 hPa ESE 9.3 km/h 9.3 km/h 32 % 0.0 mm 529.0 W/m2 CLR
18:09 35.1 °C 16.4 °C 1013.1 hPa East 11.1 km/h 11.1 km/h 33 % 0.0 mm 485.0 W/m2 CLR
18:14 34.9 °C 16.2 °C 1012.8 hPa ENE 13.0 km/h 13.0 km/h 33 % 0.0 mm 489.0 W/m2 CLR
18:19 34.8 °C 16.6 °C 1013.1 hPa East 6.4 km/h 6.4 km/h 34 % 0.0 mm 475.0 W/m2 CLR
18:24 34.9 °C 16.7 °C 1012.8 hPa ENE 4.8 km/h 4.8 km/h 34 % 0.0 mm 459.0 W/m2 CLR
18:29 34.9 °C 16.7 °C 1012.8 hPa Calm     34 % 0.0 mm 445.0 W/m2 CLR
18:34 35.1 °C 16.4 °C 1012.8 hPa Calm     33 % 0.0 mm 427.0 W/m2 CLR
18:39 35.1 °C 15.9 °C 1012.8 hPa ENE 7.4 km/h 7.4 km/h 32 % 0.0 mm 415.0 W/m2 CLR
18:44 34.7 °C 17.9 °C 1012.4 hPa ESE 18.5 km/h 18.5 km/h 37 % 0.0 mm 399.0 W/m2 CLR
18:46 34.6 °C 17.7 °C 1012.8 hPa SE 19.3 km/h 19.3 km/h 37 % 0.0 mm 392.0 W/m2 CLR
18:51 34.3 °C 17.9 °C 1012.4 hPa ESE 13.0 km/h 13.0 km/h 38 % 0.0 mm 371.0 W/m2 CLR
18:56 34.2 °C 17.4 °C 1012.4 hPa ESE 16.7 km/h 16.7 km/h 37 % 0.0 mm 362.0 W/m2 CLR
19:01 34.1 °C 17.8 °C 1012.4 hPa East 11.3 km/h 11.3 km/h 38 % 0.0 mm 345.0 W/m2 CLR
19:06 34.0 °C 17.3 °C 1012.4 hPa SE 16.7 km/h 16.7 km/h 37 % 0.0 mm 329.0 W/m2 CLR
19:11 33.7 °C 17.4 °C 1012.4 hPa ESE 14.8 km/h 14.8 km/h 38 % 0.0 mm 316.0 W/m2 CLR
19:16 33.4 °C 17.2 °C 1012.4 hPa ESE 18.5 km/h 18.5 km/h 38 % 0.0 mm 301.0 W/m2 CLR
19:21 33.2 °C 16.9 °C 1012.4 hPa ESE 18.5 km/h 18.5 km/h 38 % 0.0 mm 287.0 W/m2 CLR
19:26 33.0 °C 16.8 °C 1012.4 hPa ESE 18.5 km/h 18.5 km/h 38 % 0.0 mm 274.0 W/m2 CLR
19:31 32.9 °C 16.3 °C 1012.4 hPa ESE 16.7 km/h 16.7 km/h 37 % 0.0 mm 260.0 W/m2 CLR
19:36 33.0 °C 15.9 °C 1012.4 hPa ESE 13.0 km/h 13.0 km/h 36 % 0.0 mm 244.0 W/m2 CLR
19:41 33.0 °C 15.5 °C 1012.4 hPa ESE 18.5 km/h 18.5 km/h 35 % 0.0 mm 230.0 W/m2 CLR
19:46 32.9 °C 15.9 °C 1012.4 hPa East 14.8 km/h 14.8 km/h 36 % 0.0 mm 213.0 W/m2 CLR
19:51 32.8 °C 16.2 °C 1012.4 hPa East 18.5 km/h 18.5 km/h 37 % 0.0 mm 199.0 W/m2 CLR
19:56 32.5 °C 16.3 °C 1012.4 hPa ESE 16.7 km/h 16.7 km/h 38 % 0.0 mm 183.0 W/m2 CLR
20:01 32.2 °C 17.3 °C 1012.4 hPa ESE 11.3 km/h 11.3 km/h 41 % 0.0 mm 165.0 W/m2 CLR
20:06 32.1 °C 17.6 °C 1012.4 hPa SE 7.4 km/h   42 % 0.0 mm 151.0 W/m2 CLR
20:08 32.0 °C 17.8 °C 1012.4 hPa East 7.4 km/h 7.4 km/h 43 % 0.0 mm 144.0 W/m2 CLR
20:13 31.8 °C 18.0 °C 1012.4 hPa ESE 11.3 km/h 11.3 km/h 44 % 0.0 mm 130.0 W/m2 CLR
20:18 31.6 °C 18.6 °C 1012.4 hPa ESE 11.1 km/h 11.1 km/h 46 % 0.0 mm 116.0 W/m2 CLR
20:23 31.3 °C 18.3 °C 1012.8 hPa SE 9.3 km/h 9.3 km/h 46 % 0.0 mm 104.0 W/m2 CLR
20:28 31.2 °C 18.2 °C 1012.8 hPa ESE 7.4 km/h 7.4 km/h 46 % 0.0 mm 90.0 W/m2 CLR
20:33 31.2 °C 18.5 °C 1012.8 hPa Calm     47 % 0.0 mm 77.0 W/m2 CLR
20:38 31.1 °C 18.4 °C 1012.8 hPa Calm     47 % 0.0 mm 67.0 W/m2 FEW
20:43 31.1 °C 18.4 °C 1012.8 hPa Calm     47 % 0.0 mm 58.0 W/m2 SCT
20:48 31.1 °C 18.4 °C 1012.8 hPa Calm     47 % 0.0 mm 42.0 W/m2 BKN
20:53 30.9 °C 18.7 °C 1012.8 hPa ENE 1.6 km/h   48 % 0.0 mm 40.0 W/m2 BKN
20:58 30.7 °C 18.8 °C 1012.8 hPa ENE 13.0 km/h 13.0 km/h 49 % 0.0 mm 33.0 W/m2 BKN
21:03 30.4 °C 18.8 °C 1012.8 hPa ENE 3.7 km/h   50 % 0.0 mm 28.0 W/m2 BKN
21:08 30.3 °C 19.0 °C 1012.8 hPa Calm     51 % 0.0 mm 23.0 W/m2 BKN
21:13 30.1 °C 19.1 °C 1013.1 hPa ENE 5.6 km/h 5.6 km/h 52 % 0.0 mm 18.0 W/m2 BKN
21:18 29.8 °C 18.9 °C 1013.1 hPa Calm     52 % 0.0 mm 14.0 W/m2 BKN
21:23 29.6 °C 18.9 °C 1013.1 hPa Calm     53 % 0.0 mm 9.0 W/m2 BKN
21:28 29.4 °C 19.1 °C 1013.1 hPa Calm     54 % 0.0 mm 5.0 W/m2 OVC
21:33 29.3 °C 19.3 °C 1013.1 hPa Calm   0.2 km/h 55 % 0.0 mm 0.0 W/m2 OVC
21:38 29.0 °C 19.3 °C 1013.1 hPa East 3.7 km/h   56 % 0.0 mm 0.0 W/m2 OVC
21:43 28.8 °C 19.4 °C 1013.1 hPa Calm     57 % 0.0 mm 0.0 W/m2 OVC
21:48 28.6 °C 19.3 °C 1013.4 hPa Calm     57 % 0.0 mm 0.0 W/m2 CLR
21:49 28.6 °C 19.3 °C 1013.4 hPa Calm     57 % 0.0 mm 0.0 W/m2 CLR
21:54 28.4 °C 19.3 °C 1013.4 hPa ENE 5.6 km/h 5.6 km/h 58 % 0.0 mm 0.0 W/m2 CLR
21:59 28.2 °C 19.4 °C 1013.4 hPa Calm     59 % 0.0 mm 0.0 W/m2 CLR
22:00 28.2 °C 19.4 °C 1013.4 hPa Calm     59 % 0.0 mm 0.0 W/m2 CLR
22:05 28.0 °C 19.2 °C 1013.4 hPa Calm     59 % 0.0 mm 0.0 W/m2 CLR
22:10 27.9 °C 19.4 °C 1013.8 hPa Calm     60 % 0.0 mm 0.0 W/m2 CLR
22:15 27.8 °C 19.6 °C 1013.8 hPa Calm     61 % 0.0 mm 0.0 W/m2 CLR
22:20 27.7 °C 19.4 °C 1013.8 hPa Calm     61 % 0.0 mm 0.0 W/m2 CLR
22:25 27.6 °C 19.6 °C 1014.1 hPa Calm     62 % 0.0 mm 0.0 W/m2 CLR
22:30 27.5 °C 19.6 °C 1014.1 hPa Calm     62 % 0.0 mm 0.0 W/m2 CLR
22:35 27.4 °C 19.4 °C 1014.1 hPa Calm     62 % 0.0 mm 0.0 W/m2 CLR
22:40 27.3 °C 19.7 °C 1014.1 hPa Calm     63 % 0.0 mm 0.0 W/m2 CLR
22:45 27.2 °C 19.5 °C 1014.4 hPa Calm     63 % 0.0 mm 0.0 W/m2 CLR
22:50 27.1 °C 19.4 °C 1014.4 hPa Calm     63 % 0.0 mm 0.0 W/m2 CLR
22:55 26.9 °C 19.3 °C 1014.4 hPa Calm     63 % 0.0 mm 0.0 W/m2 CLR
23:00 26.6 °C 19.2 °C 1014.8 hPa WNW 11.1 km/h 11.1 km/h 64 % 0.0 mm 0.0 W/m2 CLR
23:05 26.5 °C 19.4 °C 1014.8 hPa Calm     65 % 0.0 mm 0.0 W/m2 CLR
23:10 26.4 °C 19.3 °C 1014.8 hPa Calm     65 % 0.0 mm 0.0 W/m2 CLR
23:15 26.5 °C 19.1 °C 1014.8 hPa Calm     64 % 0.0 mm 0.0 W/m2 CLR
23:20 26.4 °C 19.3 °C 1014.8 hPa Calm     65 % 0.0 mm 0.0 W/m2 CLR
23:25 26.3 °C 19.2 °C 1015.1 hPa Calm     65 % 0.0 mm 0.0 W/m2 CLR
23:30 26.2 °C 19.1 °C 1015.1 hPa Calm     65 % 0.0 mm 0.0 W/m2 CLR
23:35 26.2 °C 19.1 °C 1015.1 hPa Calm     65 % 0.0 mm 0.0 W/m2 CLR
23:40 26.2 °C 19.1 °C 1015.1 hPa Calm     65 % 0.0 mm 0.0 W/m2 CLR
23:45 26.2 °C 19.1 °C 1015.1 hPa Calm     65 % 0.0 mm 0.0 W/m2 CLR
23:50 26.2 °C 18.8 °C 1015.1 hPa Calm     64 % 0.0 mm 0.0 W/m2 CLR
23:55 26.2 °C 18.4 °C 1015.1 hPa Calm     62 % 0.0 mm 0.0 W/m2 CLR
Lo Temps de Massalio
Compliments of Weather Underground - 1.25 mb